Tetide — IVTN — position and weather

sailwx.info

Track history (hours):
 
Tides and Currents Weather Stations Pressure Air Temp Water Temp Dewpoint Dewpoint Depression Visibility Wind Speed Wind Dir Waves Ship Positions

Tetide

Last reported at 2015-Sep-03 01:33 UTC. Time now 2015-Sep-04 18:48 UTC.
Position N 41°15' E 013°37'.

Length 70 m; draft 3.6 m.

Type: Passenger vessel. MMSI: 247043100.

Date/timePositionNaut miles runAvg speedWind from/ knotsBaromVisibWave heightAir tempDewpointWater temp
2015-Sep-03 01:33N 41°15' E 013°37'0 0.0
2015-Sep-03 00:30N 41°15' E 013°37'0 0.0
2015-Sep-02 22:32N 41°15' E 013°37'0 0.0
2015-Sep-02 21:30N 41°15' E 013°37'8 1.0
2015-Sep-02 13:26N 41°09' E 013°30'8 8.9
2015-Sep-02 12:33N 41°15' E 013°37'10 9.8
2015-Sep-02 11:33N 41°08' E 013°28'1413.8
2015-Sep-02 10:33N 41°01' E 013°12'2 0.7
2015-Sep-02 08:12N 41°00' E 013°10'25 6.3
2015-Sep-02 04:15N 41°15' E 013°37'0 0.0
2015-Sep-02 03:33N 41°15' E 013°37'0 0.0
2015-Sep-02 02:04N 41°15' E 013°37'7 0.9
2015-Sep-01 18:34N 41°10' E 013°32'1413.9
2015-Sep-01 17:33N 41°02' E 013°16'1414.0
2015-Sep-01 16:33N 40°55' E 013°01'7 4.9
2015-Sep-01 15:08N 40°59' E 013°08'19 0.9
2015-Aug-31 19:07N 41°08' E 013°30'813.7
2015-Aug-31 18:33N 41°04' E 013°21'1413.8
2015-Aug-31 17:33N 40°57' E 013°05'6 6.2
2015-Aug-31 16:33N 40°54' E 012°58'1212.2
2015-Aug-31 15:34N 40°60' E 013°12'1813.4
2015-Aug-31 14:13N 41°09' E 013°32'6 9.0
2015-Aug-31 13:32N 41°14' E 013°37'1 1.0
2015-Aug-31 12:34N 41°13' E 013°36'1313.4
2015-Aug-31 11:33N 41°06' E 013°22'15 5.0
2015-Aug-31 08:33N 40°57' E 013°05'1513.7
2015-Aug-31 07:28N 41°05' E 013°22'1213.7
2015-Aug-31 06:33N 41°12' E 013°36'3 1.0
2015-Aug-31 03:32N 41°15' E 013°37'0 0.0
2015-Aug-31 02:33N 41°15' E 013°37'0 0.0
2015-Aug-31 01:13N 41°15' E 013°37'0 0.0
2015-Aug-31 00:32N 41°15' E 013°37'0 0.0
2015-Aug-30 23:33N 41°15' E 013°37'0 0.0
2015-Aug-30 22:29N 41°15' E 013°37'0 0.0
2015-Aug-30 21:33N 41°15' E 013°37'0 0.0
2015-Aug-30 20:33N 41°15' E 013°37'0 0.0
2015-Aug-30 19:33N 41°15' E 013°37'9 9.4
2015-Aug-30 18:33N 41°08' E 013°29'1413.5
2015-Aug-30 17:33N 41°01' E 013°14'1313.5
2015-Aug-30 16:33N 40°54' E 012°58'6 5.6
2015-Aug-30 15:33N 40°57' E 013°05'1313.4
2015-Aug-30 14:33N 41°04' E 013°20'1313.4
2015-Aug-30 13:33N 41°11' E 013°34'4 4.2
2015-Aug-30 12:34N 41°15' E 013°37'1312.9
2015-Aug-30 11:33N 41°06' E 013°25'1313.2
2015-Aug-30 10:34N 40°59' E 013°10'10 7.1
2015-Aug-30 09:05N 40°54' E 012°58'713.4
2015-Aug-30 08:33N 40°58' E 013°06'1413.6
2015-Aug-30 07:32N 41°06' E 013°21'1313.6
2015-Aug-30 06:33N 41°13' E 013°36'3 2.8
2015-Aug-30 05:33N 41°15' E 013°37'0 0.0
2015-Aug-30 04:33N 41°15' E 013°37'0 0.0
2015-Aug-30 02:15N 41°15' E 013°37'0 0.0
2015-Aug-30 01:32N 41°15' E 013°37'0 0.0
2015-Aug-30 00:33N 41°15' E 013°37'0 0.0
2015-Aug-29 23:33N 41°15' E 013°37'0 0.0
2015-Aug-29 22:11N 41°15' E 013°37'0 0.0
2015-Aug-29 21:33N 41°15' E 013°37'0 0.0
2015-Aug-29 20:27N 41°15' E 013°37'1 1.1
2015-Aug-29 19:31N 41°14' E 013°37'1212.9
2015-Aug-29 18:33N 41°05' E 013°25'1313.2
2015-Aug-29 17:33N 40°59' E 013°11'11 8.3
2015-Aug-29 16:16N 40°54' E 012°58'811.4
2015-Aug-29 15:33N 40°58' E 013°07'1313.2
2015-Aug-29 14:33N 41°05' E 013°22'1313.1
2015-Aug-29 13:33N 41°12' E 013°36'2 1.8
2015-Aug-29 12:33N 41°14' E 013°37'1313.4
2015-Aug-29 11:33N 41°05' E 013°23'1413.8
2015-Aug-29 10:33N 40°58' E 013°08'9 7.1
2015-Aug-29 09:19N 40°54' E 012°58'1311.3
2015-Aug-29 08:12N 41°01' E 013°12'24 4.1
2015-Aug-29 02:27N 41°15' E 013°37'0 0.0
2015-Aug-29 01:28N 41°15' E 013°37'0 0.0
2015-Aug-28 23:33N 41°15' E 013°37'0 0.0
2015-Aug-28 22:33N 41°15' E 013°37'0 0.0
2015-Aug-28 21:33N 41°15' E 013°37'0 0.0
2015-Aug-28 20:19N 41°15' E 013°37'0 0.0
2015-Aug-28 19:30N 41°15' E 013°37'12 6.4
2015-Aug-28 17:33N 41°07' E 013°25'18 2.5
2015-Aug-28 10:30N 40°49' E 013°25'3 2.7
2015-Aug-28 09:25N 40°51' E 013°27'1213.7
2015-Aug-28 08:33N 41°03' E 013°32'13 2.1
2015-Aug-28 02:07N 41°15' E 013°37'0 0.0
2015-Aug-28 01:28N 41°15' E 013°37'0 0.0
2015-Aug-28 00:08N 41°15' E 013°37'0 0.0
2015-Aug-27 23:29N 41°15' E 013°37'0 0.0
2015-Aug-27 20:31N 41°15' E 013°37'0 0.0
2015-Aug-27 19:30N 41°15' E 013°37'5 5.7
2015-Aug-27 18:32N 41°11' E 013°33'1513.6
2015-Aug-27 17:26N 41°02' E 013°16'4 1.2
2015-Aug-27 14:06N 41°05' E 013°21'1213.5
2015-Aug-27 13:12N 41°12' E 013°34'4 6.2
2015-Aug-27 12:32N 41°15' E 013°37'1711.6
2015-Aug-27 11:05N 41°04' E 013°20'713.9
2015-Aug-27 10:34N 41°00' E 013°12'12 8.4
2015-Aug-27 09:06N 40°54' E 012°58'713.3
2015-Aug-27 08:33N 40°58' E 013°06'29 3.9
2015-Aug-27 01:13N 41°15' E 013°37'0 0.0
2015-Aug-27 00:33N 41°15' E 013°37'0 0.0
2015-Aug-26 23:33N 41°15' E 013°37'4 0.9
2015-Aug-26 18:33N 41°11' E 013°34'1413.8
2015-Aug-26 17:33N 41°03' E 013°19'18 3.5
2015-Aug-26 12:32N 41°15' E 013°37'1411.8
2015-Aug-26 11:22N 41°06' E 013°23'1113.9
2015-Aug-26 10:34N 40°60' E 013°11'25 1.7
2015-Aug-25 20:14N 41°15' E 013°37'0 0.0
2015-Aug-25 19:30N 41°15' E 013°37'2211.2
2015-Aug-25 17:33N 41°01' E 013°15'22 1.1
2015-Aug-24 21:09N 41°15' E 013°37'0 0.0
2015-Aug-24 20:20N 41°15' E 013°37'0 0.0
2015-Aug-24 19:33N 41°15' E 013°37'12 8.6
2015-Aug-24 18:11N 41°07' E 013°25'1013.4
2015-Aug-24 17:26N 41°02' E 013°14'22 4.4
2015-Aug-24 12:30N 41°15' E 013°37'0 0.0
2015-Aug-24 05:28N 41°15' E 013°37'  
Track history (hours):
 
Tides and Currents Weather Stations Pressure Air Temp Water Temp Dewpoint Dewpoint Depression Visibility Wind Speed Wind Dir Waves Ship Positions

Tetide

Last reported at 2015-Sep-03 01:33 UTC. Time now 2015-Sep-04 18:48 UTC.
Position N 41°15' E 013°37'.

Length 70 m; draft 3.6 m.

Type: Passenger vessel. MMSI: 247043100.

Date/timePositionNaut miles runAvg speedWind from/ knotsBaromVisibWave heightAir tempDewpointWater temp
2015-Sep-03 01:33N 41°15' E 013°37'0 0.0
2015-Sep-03 00:30N 41°15' E 013°37'0 0.0
2015-Sep-02 22:32N 41°15' E 013°37'0 0.0
2015-Sep-02 21:30N 41°15' E 013°37'8 1.0
2015-Sep-02 13:26N 41°09' E 013°30'8 8.9
2015-Sep-02 12:33N 41°15' E 013°37'10 9.8
2015-Sep-02 11:33N 41°08' E 013°28'1413.8
2015-Sep-02 10:33N 41°01' E 013°12'2 0.7
2015-Sep-02 08:12N 41°00' E 013°10'25 6.3
2015-Sep-02 04:15N 41°15' E 013°37'0 0.0
2015-Sep-02 03:33N 41°15' E 013°37'0 0.0
2015-Sep-02 02:04N 41°15' E 013°37'7 0.9
2015-Sep-01 18:34N 41°10' E 013°32'1413.9
2015-Sep-01 17:33N 41°02' E 013°16'1414.0
2015-Sep-01 16:33N 40°55' E 013°01'7 4.9
2015-Sep-01 15:08N 40°59' E 013°08'19 0.9
2015-Aug-31 19:07N 41°08' E 013°30'813.7
2015-Aug-31 18:33N 41°04' E 013°21'1413.8
2015-Aug-31 17:33N 40°57' E 013°05'6 6.2
2015-Aug-31 16:33N 40°54' E 012°58'1212.2
2015-Aug-31 15:34N 40°60' E 013°12'1813.4
2015-Aug-31 14:13N 41°09' E 013°32'6 9.0
2015-Aug-31 13:32N 41°14' E 013°37'1 1.0
2015-Aug-31 12:34N 41°13' E 013°36'1313.4
2015-Aug-31 11:33N 41°06' E 013°22'15 5.0
2015-Aug-31 08:33N 40°57' E 013°05'1513.7
2015-Aug-31 07:28N 41°05' E 013°22'1213.7
2015-Aug-31 06:33N 41°12' E 013°36'3 1.0
2015-Aug-31 03:32N 41°15' E 013°37'0 0.0
2015-Aug-31 02:33N 41°15' E 013°37'0 0.0
2015-Aug-31 01:13N 41°15' E 013°37'0 0.0
2015-Aug-31 00:32N 41°15' E 013°37'0 0.0
2015-Aug-30 23:33N 41°15' E 013°37'0 0.0
2015-Aug-30 22:29N 41°15' E 013°37'0 0.0
2015-Aug-30 21:33N 41°15' E 013°37'0 0.0
2015-Aug-30 20:33N 41°15' E 013°37'0 0.0
2015-Aug-30 19:33N 41°15' E 013°37'9 9.4
2015-Aug-30 18:33N 41°08' E 013°29'1413.5
2015-Aug-30 17:33N 41°01' E 013°14'1313.5
2015-Aug-30 16:33N 40°54' E 012°58'6 5.6
2015-Aug-30 15:33N 40°57' E 013°05'1313.4
2015-Aug-30 14:33N 41°04' E 013°20'1313.4
2015-Aug-30 13:33N 41°11' E 013°34'4 4.2
2015-Aug-30 12:34N 41°15' E 013°37'1312.9
2015-Aug-30 11:33N 41°06' E 013°25'1313.2
2015-Aug-30 10:34N 40°59' E 013°10'10 7.1
2015-Aug-30 09:05N 40°54' E 012°58'713.4
2015-Aug-30 08:33N 40°58' E 013°06'1413.6
2015-Aug-30 07:32N 41°06' E 013°21'1313.6
2015-Aug-30 06:33N 41°13' E 013°36'3 2.8
2015-Aug-30 05:33N 41°15' E 013°37'0 0.0
2015-Aug-30 04:33N 41°15' E 013°37'0 0.0
2015-Aug-30 02:15N 41°15' E 013°37'0 0.0
2015-Aug-30 01:32N 41°15' E 013°37'0 0.0
2015-Aug-30 00:33N 41°15' E 013°37'0 0.0
2015-Aug-29 23:33N 41°15' E 013°37'0 0.0
2015-Aug-29 22:11N 41°15' E 013°37'0 0.0
2015-Aug-29 21:33N 41°15' E 013°37'0 0.0
2015-Aug-29 20:27N 41°15' E 013°37'1 1.1
2015-Aug-29 19:31N 41°14' E 013°37'1212.9
2015-Aug-29 18:33N 41°05' E 013°25'1313.2
2015-Aug-29 17:33N 40°59' E 013°11'11 8.3
2015-Aug-29 16:16N 40°54' E 012°58'811.4
2015-Aug-29 15:33N 40°58' E 013°07'1313.2
2015-Aug-29 14:33N 41°05' E 013°22'1313.1
2015-Aug-29 13:33N 41°12' E 013°36'2 1.8
2015-Aug-29 12:33N 41°14' E 013°37'1313.4
2015-Aug-29 11:33N 41°05' E 013°23'1413.8
2015-Aug-29 10:33N 40°58' E 013°08'9 7.1
2015-Aug-29 09:19N 40°54' E 012°58'1311.3
2015-Aug-29 08:12N 41°01' E 013°12'24 4.1
2015-Aug-29 02:27N 41°15' E 013°37'0 0.0
2015-Aug-29 01:28N 41°15' E 013°37'0 0.0
2015-Aug-28 23:33N 41°15' E 013°37'0 0.0
2015-Aug-28 22:33N 41°15' E 013°37'0 0.0
2015-Aug-28 21:33N 41°15' E 013°37'0 0.0
2015-Aug-28 20:19N 41°15' E 013°37'0 0.0
2015-Aug-28 19:30N 41°15' E 013°37'12 6.4
2015-Aug-28 17:33N 41°07' E 013°25'18 2.5
2015-Aug-28 10:30N 40°49' E 013°25'3 2.7
2015-Aug-28 09:25N 40°51' E 013°27'1213.7
2015-Aug-28 08:33N 41°03' E 013°32'13 2.1
2015-Aug-28 02:07N 41°15' E 013°37'0 0.0
2015-Aug-28 01:28N 41°15' E 013°37'0 0.0
2015-Aug-28 00:08N 41°15' E 013°37'0 0.0
2015-Aug-27 23:29N 41°15' E 013°37'0 0.0
2015-Aug-27 20:31N 41°15' E 013°37'0 0.0
2015-Aug-27 19:30N 41°15' E 013°37'5 5.7
2015-Aug-27 18:32N 41°11' E 013°33'1513.6
2015-Aug-27 17:26N 41°02' E 013°16'4 1.2
2015-Aug-27 14:06N 41°05' E 013°21'1213.5
2015-Aug-27 13:12N 41°12' E 013°34'4 6.2
2015-Aug-27 12:32N 41°15' E 013°37'1711.6
2015-Aug-27 11:05N 41°04' E 013°20'713.9
2015-Aug-27 10:34N 41°00' E 013°12'12 8.4
2015-Aug-27 09:06N 40°54' E 012°58'713.3
2015-Aug-27 08:33N 40°58' E 013°06'29 3.9
2015-Aug-27 01:13N 41°15' E 013°37'0 0.0
2015-Aug-27 00:33N 41°15' E 013°37'0 0.0
2015-Aug-26 23:33N 41°15' E 013°37'4 0.9
2015-Aug-26 18:33N 41°11' E 013°34'1413.8
2015-Aug-26 17:33N 41°03' E 013°19'18 3.5
2015-Aug-26 12:32N 41°15' E 013°37'1411.8
2015-Aug-26 11:22N 41°06' E 013°23'1113.9
2015-Aug-26 10:34N 40°60' E 013°11'25 1.7
2015-Aug-25 20:14N 41°15' E 013°37'0 0.0
2015-Aug-25 19:30N 41°15' E 013°37'2211.2
2015-Aug-25 17:33N 41°01' E 013°15'22 1.1
2015-Aug-24 21:09N 41°15' E 013°37'0 0.0
2015-Aug-24 20:20N 41°15' E 013°37'0 0.0
2015-Aug-24 19:33N 41°15' E 013°37'12 8.6
2015-Aug-24 18:11N 41°07' E 013°25'1013.4
2015-Aug-24 17:26N 41°02' E 013°14'22 4.4
2015-Aug-24 12:30N 41°15' E 013°37'0 0.0
2015-Aug-24 05:28N 41°15' E 013°37'  

Dump ship's entire track history